Time;durP1;ratioP1;P1;durP2;ratioP2;P2;SDS_P1;SDS_P2;PMS_P1;PMS_P2;Temp;Humidity;BMP_temperature;BMP_pressure;BME280_temperature;BME280_humidity;BME280_pressure;Samples;Min_cycle;Max_cycle;Signal;HPM_P1;HPM_P2
2021/09/21 00:00:07;;;;;;;1.80;1.70;;;;;;;;;;4698658;30;20651;-81
2021/09/21 00:02:34;;;;;;;2.55;1.63;;;;;;;;;;4698630;30;20207;-81
2021/09/21 00:05:04;;;;;;;3.35;1.48;;;;;;;;;;4698719;30;20215;-80
2021/09/21 00:07:32;;;;;;;1.60;1.50;;;;;;;;;;4698891;30;20238;-81
2021/09/21 00:09:59;;;;;;;2.05;1.75;;;;;;;;;;4698837;30;20202;-81
2021/09/21 00:12:27;;;;;;;1.98;1.65;;;;;;;;;;4698640;30;20776;-81
2021/09/21 00:14:54;;;;;;;1.60;1.50;;;;;;;;;;4698755;30;20203;-81
2021/09/21 00:17:22;;;;;;;2.10;1.40;;;;;;;;;;4698434;30;20242;-81
2021/09/21 00:19:50;;;;;;;1.98;1.80;;;;;;;;;;4681181;30;20210;-81
2021/09/21 00:22:19;;;;;;;2.35;1.95;;;;;;;;;;4681195;30;20198;-81
2021/09/21 00:24:46;;;;;;;1.95;1.77;;;;;;;;;;4681184;30;20549;-81
2021/09/21 00:27:15;;;;;;;1.80;1.70;;;;;;;;;;4681341;30;20259;-81
2021/09/21 00:29:44;;;;;;;1.58;1.42;;;;;;;;;;4695338;30;20206;-81
2021/09/21 00:32:16;;;;;;;2.08;1.30;;;;;;;;;;4698618;30;20289;-81
2021/09/21 00:34:44;;;;;;;4.88;1.98;;;;;;;;;;4697487;30;20254;-81
2021/09/21 00:37:13;;;;;;;1.80;1.70;;;;;;;;;;4698125;30;20239;-81
2021/09/21 00:39:43;;;;;;;1.90;1.80;;;;;;;;;;4654910;30;1066152;-81
2021/09/21 00:42:11;;;;;;;3.55;2.03;;;;;;;;;;4681650;30;20219;-81
2021/09/21 00:44:40;;;;;;;2.30;1.52;;;;;;;;;;4681698;30;20192;-81
2021/09/21 00:47:10;;;;;;;4.05;1.63;;;;;;;;;;4681910;30;20238;-81
2021/09/21 00:49:39;;;;;;;2.53;1.63;;;;;;;;;;4682116;30;20207;-81
2021/09/21 00:52:06;;;;;;;1.98;1.65;;;;;;;;;;4681958;30;20214;-81
2021/09/21 00:54:34;;;;;;;1.55;1.45;;;;;;;;;;4681624;30;20660;-81
2021/09/21 00:57:03;;;;;;;1.80;1.70;;;;;;;;;;4681817;30;20235;-81
2021/09/21 00:59:30;;;;;;;2.08;1.88;;;;;;;;;;4681647;30;20634;-81
2021/09/21 01:01:58;;;;;;;1.98;1.70;;;;;;;;;;4681695;30;20211;-81
2021/09/21 01:04:25;;;;;;;2.08;1.88;;;;;;;;;;4683292;30;20211;-81
2021/09/21 01:06:53;;;;;;;1.70;1.60;;;;;;;;;;4685094;30;20242;-81
2021/09/21 01:09:23;;;;;;;1.67;1.58;;;;;;;;;;4684808;30;20671;-81
2021/09/21 01:11:53;;;;;;;1.92;1.83;;;;;;;;;;4685161;30;20195;-81
2021/09/21 01:14:23;;;;;;;1.88;1.77;;;;;;;;;;4685057;30;20222;-82
2021/09/21 01:16:52;;;;;;;2.13;1.73;;;;;;;;;;4684847;30;20211;-81
2021/09/21 01:19:20;;;;;;;1.73;1.63;;;;;;;;;;4684983;30;20199;-81
2021/09/21 01:21:50;;;;;;;1.67;1.58;;;;;;;;;;4684701;30;20203;-82
2021/09/21 01:24:19;;;;;;;3.58;2.13;;;;;;;;;;4684887;30;20203;-82
2021/09/21 01:26:47;;;;;;;2.00;1.80;;;;;;;;;;4684753;30;20588;-81
2021/09/21 01:29:15;;;;;;;1.70;1.60;;;;;;;;;;4684457;30;20219;-81
2021/09/21 01:31:43;;;;;;;2.17;1.90;;;;;;;;;;4684834;30;20202;-81
2021/09/21 01:34:11;;;;;;;2.33;1.42;;;;;;;;;;4684704;30;20211;-81
2021/09/21 01:36:38;;;;;;;1.95;1.80;;;;;;;;;;4691704;30;20650;-82
2021/09/21 01:39:07;;;;;;;2.80;2.50;;;;;;;;;;4701431;30;20875;-82
2021/09/21 01:41:34;;;;;;;1.85;1.75;;;;;;;;;;4701909;30;20203;-81
2021/09/21 01:44:02;;;;;;;2.33;1.67;;;;;;;;;;4701666;30;20228;-82
2021/09/21 01:46:29;;;;;;;1.95;1.73;;;;;;;;;;4701710;30;20223;-81
2021/09/21 01:48:57;;;;;;;2.25;2.08;;;;;;;;;;4701729;30;20238;-82
2021/09/21 01:51:29;;;;;;;2.05;1.90;;;;;;;;;;4701778;30;20194;-81
2021/09/21 01:54:10;;;;;;;2.10;1.90;;;;;;;;;;4701677;30;20236;-81
2021/09/21 01:59:24;;;;;;;2.10;1.90;;;;;;;;;;4701302;30;20280;-81
2021/09/21 02:01:52;;;;;;;2.10;1.95;;;;;;;;;;4701368;30;20221;-81
2021/09/21 02:04:20;;;;;;;2.40;2.17;;;;;;;;;;4700572;30;20226;-81
2021/09/21 02:06:48;;;;;;;2.50;2.30;;;;;;;;;;4700275;30;20238;-81
2021/09/21 02:09:16;;;;;;;2.65;2.00;;;;;;;;;;4701467;30;20580;-81
2021/09/21 02:11:46;;;;;;;2.50;2.10;;;;;;;;;;4701040;30;20215;-81
2021/09/21 02:14:15;;;;;;;2.30;2.10;;;;;;;;;;4701110;30;20294;-81
2021/09/21 02:16:44;;;;;;;3.95;2.40;;;;;;;;;;4701262;30;20195;-81
2021/09/21 02:19:11;;;;;;;3.65;2.22;;;;;;;;;;4701089;30;20601;-81
2021/09/21 02:21:39;;;;;;;2.30;2.10;;;;;;;;;;4700844;30;20671;-81
2021/09/21 02:24:07;;;;;;;2.53;2.30;;;;;;;;;;4700828;30;20214;-81
2021/09/21 02:26:34;;;;;;;2.50;2.30;;;;;;;;;;4701055;30;20215;-81
2021/09/21 02:29:04;;;;;;;2.65;2.35;;;;;;;;;;4700925;30;20235;-82
2021/09/21 02:31:31;;;;;;;2.42;2.22;;;;;;;;;;4700885;30;20694;-82
2021/09/21 02:33:59;;;;;;;2.70;2.30;;;;;;;;;;4695627;30;20206;-81
2021/09/21 02:36:26;;;;;;;2.30;2.10;;;;;;;;;;4683679;30;20219;-82
2021/09/21 02:38:53;;;;;;;2.45;2.08;;;;;;;;;;4683631;30;20241;-82
2021/09/21 02:41:21;;;;;;;2.00;1.90;;;;;;;;;;4683023;30;20252;-82
2021/09/21 02:43:49;;;;;;;2.15;1.95;;;;;;;;;;4683777;30;20200;-82
2021/09/21 02:46:18;;;;;;;2.60;2.40;;;;;;;;;;4683562;30;20208;-81
2021/09/21 02:48:45;;;;;;;2.75;2.50;;;;;;;;;;4683825;30;20231;-81
2021/09/21 02:51:13;;;;;;;2.00;1.90;;;;;;;;;;4683550;30;20203;-81
2021/09/21 02:53:40;;;;;;;3.35;2.35;;;;;;;;;;4683102;30;20226;-82
2021/09/21 02:56:08;;;;;;;2.72;2.47;;;;;;;;;;4683270;30;20401;-82
2021/09/21 02:58:35;;;;;;;2.35;2.15;;;;;;;;;;4683229;30;20235;-82
2021/09/21 03:01:03;;;;;;;2.42;2.05;;;;;;;;;;4683350;30;20196;-81
2021/09/21 03:03:36;;;;;;;2.78;2.13;;;;;;;;;;4684703;30;20210;-81
2021/09/21 03:06:06;;;;;;;3.10;2.80;;;;;;;;;;4700438;30;20285;-82
2021/09/21 03:08:36;;;;;;;1.90;1.80;;;;;;;;;;4700099;30;20242;-81
2021/09/21 03:11:15;;;;;;;2.88;2.25;;;;;;;;;;4700176;30;20210;-82
2021/09/21 03:14:05;;;;;;;3.42;2.42;;;;;;;;;;4700422;30;20218;-82
2021/09/21 03:19:23;;;;;;;3.65;3.28;;;;;;;;;;4685101;30;20667;-81
2021/09/21 03:21:51;;;;;;;3.25;2.60;;;;;;;;;;4682282;30;20241;-82
2021/09/21 03:24:18;;;;;;;2.47;2.22;;;;;;;;;;4697321;30;20214;-82
2021/09/21 03:26:46;;;;;;;2.78;2.50;;;;;;;;;;4698709;30;20238;-82
2021/09/21 03:29:14;;;;;;;2.28;1.92;;;;;;;;;;4699917;30;20211;-82
2021/09/21 03:31:41;;;;;;;2.40;2.20;;;;;;;;;;4699992;30;20644;-82
2021/09/21 03:34:09;;;;;;;2.17;2.08;;;;;;;;;;4699741;30;20920;-82
2021/09/21 03:36:37;;;;;;;2.03;1.80;;;;;;;;;;4700041;30;20198;-82
2021/09/21 03:39:05;;;;;;;2.63;2.42;;;;;;;;;;4699570;30;20195;-83
2021/09/21 03:41:32;;;;;;;3.40;2.13;;;;;;;;;;4699630;30;20268;-82
2021/09/21 03:44:00;;;;;;;2.47;1.98;;;;;;;;;;4699734;30;20674;-81
2021/09/21 03:46:27;;;;;;;2.95;2.10;;;;;;;;;;4699662;30;20201;-81
2021/09/21 03:48:56;;;;;;;2.10;1.90;;;;;;;;;;4696540;30;21100;-81
2021/09/21 03:51:24;;;;;;;1.88;1.77;;;;;;;;;;4682262;30;20290;-82
2021/09/21 03:53:53;;;;;;;2.33;2.13;;;;;;;;;;4682143;30;20226;-82
2021/09/21 03:56:20;;;;;;;2.45;2.25;;;;;;;;;;4710349;30;20206;-81
2021/09/21 03:58:48;;;;;;;2.35;2.15;;;;;;;;;;4716805;30;20230;-81
2021/09/21 04:01:15;;;;;;;2.83;2.60;;;;;;;;;;4716974;30;20202;-81
2021/09/21 04:03:43;;;;;;;4.10;3.70;;;;;;;;;;4716934;30;20205;-82
2021/09/21 04:06:10;;;;;;;4.30;3.15;;;;;;;;;;4716813;30;20224;-82
2021/09/21 04:08:37;;;;;;;3.30;3.00;;;;;;;;;;4716612;30;20249;-82
2021/09/21 04:11:06;;;;;;;2.80;2.60;;;;;;;;;;4700449;30;20659;-82
2021/09/21 04:13:34;;;;;;;2.35;2.15;;;;;;;;;;4699295;30;20195;-82
2021/09/21 04:16:02;;;;;;;3.20;2.20;;;;;;;;;;4699370;30;20222;-82
2021/09/21 04:18:30;;;;;;;2.10;1.90;;;;;;;;;;4699506;30;20327;-82
2021/09/21 04:20:57;;;;;;;3.55;1.85;;;;;;;;;;4698945;30;20202;-82
2021/09/21 04:23:25;;;;;;;1.48;1.38;;;;;;;;;;4699162;30;20221;-82
2021/09/21 04:25:52;;;;;;;1.73;1.63;;;;;;;;;;4699110;30;20832;-82
2021/09/21 04:28:21;;;;;;;2.22;1.85;;;;;;;;;;4698986;30;20242;-81
2021/09/21 04:30:49;;;;;;;2.65;2.22;;;;;;;;;;4699305;30;20619;-82
2021/09/21 04:33:17;;;;;;;2.17;1.98;;;;;;;;;;4699164;30;20203;-81
2021/09/21 04:35:44;;;;;;;2.15;2.05;;;;;;;;;;4698169;30;20191;-81
2021/09/21 04:38:12;;;;;;;4.15;2.67;;;;;;;;;;4700444;30;20726;-81
2021/09/21 04:40:40;;;;;;;2.47;2.28;;;;;;;;;;4702910;30;20234;-81
2021/09/21 04:43:08;;;;;;;3.28;2.97;;;;;;;;;;4685839;30;20278;-81
2021/09/21 04:45:37;;;;;;;4.13;2.92;;;;;;;;;;4685406;30;20223;-81
2021/09/21 04:48:09;;;;;;;3.08;2.55;;;;;;;;;;4690152;30;20237;-81
2021/09/21 04:50:36;;;;;;;4.72;3.05;;;;;;;;;;4702597;30;20277;-82
2021/09/21 04:53:04;;;;;;;3.15;2.85;;;;;;;;;;4702051;30;20203;-81
2021/09/21 04:55:32;;;;;;;3.42;2.70;;;;;;;;;;4702032;30;20209;-81
2021/09/21 04:57:59;;;;;;;4.40;3.20;;;;;;;;;;4702550;30;20234;-82
2021/09/21 05:00:26;;;;;;;2.90;2.58;;;;;;;;;;4702911;30;20217;-83
2021/09/21 05:02:55;;;;;;;3.47;3.05;;;;;;;;;;4702848;30;20195;-82
2021/09/21 05:05:23;;;;;;;3.35;3.05;;;;;;;;;;4702280;30;20217;-82
2021/09/21 05:07:51;;;;;;;3.28;2.97;;;;;;;;;;4702481;30;20268;-83
2021/09/21 05:10:19;;;;;;;3.08;2.78;;;;;;;;;;4703277;30;20198;-83
2021/09/21 05:12:47;;;;;;;4.07;3.17;;;;;;;;;;4702687;30;20211;-82
2021/09/21 05:15:14;;;;;;;3.60;3.28;;;;;;;;;;4702660;30;20202;-82
2021/09/21 05:17:41;;;;;;;3.50;3.20;;;;;;;;;;4702883;30;20245;-82
2021/09/21 05:20:12;;;;;;;5.22;2.80;;;;;;;;;;4702042;30;20609;-82
2021/09/21 05:22:40;;;;;;;5.47;3.85;;;;;;;;;;4695363;30;20203;-83
2021/09/21 05:25:09;;;;;;;5.82;2.92;;;;;;;;;;4688068;30;20211;-82
2021/09/21 05:27:37;;;;;;;3.70;3.40;;;;;;;;;;4690910;30;20257;-82
2021/09/21 05:30:05;;;;;;;3.67;3.33;;;;;;;;;;4701986;30;20195;-82
2021/09/21 05:32:33;;;;;;;6.50;3.42;;;;;;;;;;4701425;30;20221;-82
2021/09/21 05:35:00;;;;;;;3.45;3.10;;;;;;;;;;4701576;30;20218;-82
2021/09/21 05:37:30;;;;;;;4.50;3.15;;;;;;;;;;4702178;30;20238;-83
2021/09/21 05:39:58;;;;;;;3.70;3.30;;;;;;;;;;4702370;30;20623;-81
2021/09/21 05:42:26;;;;;;;3.47;2.50;;;;;;;;;;4701986;30;20218;-81
2021/09/21 05:44:54;;;;;;;4.65;3.38;;;;;;;;;;4702063;30;20219;-82
2021/09/21 05:47:21;;;;;;;3.70;3.10;;;;;;;;;;4702420;30;20645;-80
2021/09/21 05:49:49;;;;;;;3.30;3.00;;;;;;;;;;4702068;30;20230;-81
2021/09/21 05:52:16;;;;;;;3.13;2.85;;;;;;;;;;4702355;30;20199;-81
2021/09/21 05:54:45;;;;;;;3.05;2.75;;;;;;;;;;4701041;30;20214;-80
2021/09/21 05:57:12;;;;;;;3.40;2.70;;;;;;;;;;4700988;30;20614;-81
2021/09/21 05:59:40;;;;;;;2.75;2.55;;;;;;;;;;4700820;30;20211;-83
2021/09/21 06:02:07;;;;;;;3.00;2.60;;;;;;;;;;4713709;30;20217;-83
2021/09/21 06:04:35;;;;;;;2.85;2.65;;;;;;;;;;4718225;30;20206;-83
2021/09/21 06:07:02;;;;;;;4.28;3.47;;;;;;;;;;4707108;30;20226;-84
2021/09/21 06:09:31;;;;;;;2.88;2.63;;;;;;;;;;4700390;30;20227;-86
2021/09/21 06:12:02;;;;;;;4.80;4.10;;;;;;;;;;4700841;30;20214;-86
2021/09/21 06:14:29;;;;;;;3.25;2.95;;;;;;;;;;4701346;30;20218;-85
2021/09/21 06:16:57;;;;;;;5.85;3.10;;;;;;;;;;4701433;30;20213;-85
2021/09/21 06:19:24;;;;;;;3.15;2.85;;;;;;;;;;4701184;30;20214;-85
2021/09/21 06:21:51;;;;;;;3.13;2.83;;;;;;;;;;4701147;30;20198;-85
2021/09/21 06:24:19;;;;;;;2.15;2.05;;;;;;;;;;4701266;30;20219;-86
2021/09/21 06:26:46;;;;;;;2.78;2.58;;;;;;;;;;4701333;30;20199;-85
2021/09/21 06:29:16;;;;;;;2.38;2.17;;;;;;;;;;4701304;30;20613;-85
2021/09/21 06:31:43;;;;;;;2.70;2.50;;;;;;;;;;4701437;30;20625;-85
2021/09/21 06:34:12;;;;;;;2.58;2.25;;;;;;;;;;4701343;30;20203;-84
2021/09/21 06:36:39;;;;;;;1.88;1.77;;;;;;;;;;4701215;30;20203;-85
2021/09/21 06:39:06;;;;;;;1.50;1.40;;;;;;;;;;4701046;30;20195;-85
2021/09/21 06:41:34;;;;;;;1.75;1.65;;;;;;;;;;4701224;30;20214;-86
2021/09/21 06:44:01;;;;;;;2.15;1.95;;;;;;;;;;4701196;30;20205;-85
2021/09/21 06:46:30;;;;;;;2.95;2.08;;;;;;;;;;4701314;30;20207;-85
2021/09/21 06:48:59;;;;;;;3.95;3.00;;;;;;;;;;4701228;30;20248;-85
2021/09/21 06:51:27;;;;;;;3.67;3.33;;;;;;;;;;4700685;30;20230;-86
2021/09/21 06:53:55;;;;;;;4.72;3.72;;;;;;;;;;4700922;30;20210;-85
2021/09/21 06:56:27;;;;;;;5.18;3.75;;;;;;;;;;4700790;30;20213;-86
2021/09/21 06:59:01;;;;;;;4.93;3.70;;;;;;;;;;4697278;30;20220;-86
2021/09/21 07:01:30;;;;;;;3.60;2.95;;;;;;;;;;4682643;30;20221;-85
2021/09/21 07:03:59;;;;;;;4.93;3.15;;;;;;;;;;4683547;30;20206;-86
2021/09/21 07:06:28;;;;;;;4.22;3.22;;;;;;;;;;4683330;30;20208;-86
2021/09/21 07:09:03;;;;;;;4.40;4.00;;;;;;;;;;4683365;30;20242;-86
2021/09/21 07:11:30;;;;;;;4.93;4.40;;;;;;;;;;4683480;30;20229;-86
2021/09/21 07:13:58;;;;;;;4.53;3.83;;;;;;;;;;4683586;30;20208;-86
2021/09/21 07:16:25;;;;;;;8.43;4.05;;;;;;;;;;4683819;30;20206;-86
2021/09/21 07:18:54;;;;;;;4.60;3.15;;;;;;;;;;4692129;30;20242;-85
2021/09/21 07:21:22;;;;;;;3.88;3.33;;;;;;;;;;4685837;30;20217;-86
2021/09/21 07:23:51;;;;;;;4.10;3.70;;;;;;;;;;4697299;30;20207;-86
2021/09/21 07:26:19;;;;;;;3.28;2.97;;;;;;;;;;4683149;30;20200;-86
2021/09/21 07:28:47;;;;;;;2.90;2.67;;;;;;;;;;4688738;30;20237;-85
2021/09/21 07:31:15;;;;;;;3.28;2.70;;;;;;;;;;4682981;30;20211;-85
2021/09/21 07:34:00;;;;;;;3.17;2.78;;;;;;;;;;4683319;30;20195;-87
2021/09/21 07:36:30;;;;;;;2.70;2.50;;;;;;;;;;4689866;30;20208;-86
2021/09/21 07:38:57;;;;;;;3.80;3.42;;;;;;;;;;4700120;30;20238;-85
2021/09/21 07:41:26;;;;;;;2.83;2.60;;;;;;;;;;4666023;30;20286;-85
2021/09/21 07:43:54;;;;;;;4.10;2.80;;;;;;;;;;4665941;30;20215;-86
2021/09/21 07:46:23;;;;;;;3.08;2.75;;;;;;;;;;4665250;30;20208;-85
2021/09/21 07:48:56;;;;;;;2.97;2.67;;;;;;;;;;4665511;30;20229;-86
2021/09/21 07:51:25;;;;;;;3.35;3.05;;;;;;;;;;4665811;30;20220;-85
2021/09/21 07:53:53;;;;;;;5.88;3.70;;;;;;;;;;4665693;30;20226;-88
2021/09/21 07:56:21;;;;;;;4.22;3.35;;;;;;;;;;4665556;30;20211;-87
2021/09/21 07:58:50;;;;;;;2.83;2.50;;;;;;;;;;4665786;30;20275;-88
2021/09/21 08:01:19;;;;;;;4.05;3.42;;;;;;;;;;4665519;30;20661;-88
2021/09/21 08:03:46;;;;;;;5.10;3.67;;;;;;;;;;4665693;30;20219;-87
2021/09/21 08:06:17;;;;;;;3.50;3.20;;;;;;;;;;4665625;30;20208;-87
2021/09/21 08:08:48;;;;;;;3.53;2.70;;;;;;;;;;4665405;30;20251;-87
2021/09/21 08:11:17;;;;;;;2.83;2.60;;;;;;;;;;4665185;30;20587;-87
2021/09/21 08:13:49;;;;;;;2.60;2.40;;;;;;;;;;4665541;30;20208;-88
2021/09/21 08:16:27;;;;;;;2.42;2.22;;;;;;;;;;4665449;30;20215;-87
2021/09/21 08:19:14;;;;;;;3.20;2.90;;;;;;;;;;4665505;30;20246;-87
2021/09/21 08:21:59;;;;;;;2.78;2.53;;;;;;;;;;4665313;30;20222;-88
2021/09/21 08:24:31;;;;;;;3.05;2.55;;;;;;;;;;4665418;30;20594;-86
2021/09/21 08:27:05;;;;;;;2.78;2.42;;;;;;;;;;4664971;30;20219;-87
2021/09/21 08:29:34;;;;;;;3.22;2.92;;;;;;;;;;4665320;30;20215;-88
2021/09/21 08:32:11;;;;;;;3.65;3.35;;;;;;;;;;4665162;30;20641;-87
2021/09/21 08:34:38;;;;;;;3.13;2.83;;;;;;;;;;4665049;30;20580;-84
2021/09/21 08:37:10;;;;;;;2.65;2.40;;;;;;;;;;4665320;30;20240;-86
2021/09/21 08:39:39;;;;;;;4.35;3.92;;;;;;;;;;4657412;30;20250;-87
2021/09/21 08:42:07;;;;;;;3.15;2.85;;;;;;;;;;4682485;30;20219;-86
2021/09/21 08:45:03;;;;;;;5.40;2.60;;;;;;;;;;4682415;30;20208;-87
2021/09/21 08:48:05;;;;;;;2.88;2.50;;;;;;;;;;4682416;30;20285;-86
2021/09/21 08:50:47;;;;;;;2.90;2.70;;;;;;;;;;4682233;30;20610;-87
2021/09/21 08:53:21;;;;;;;3.00;2.17;;;;;;;;;;4682095;30;20195;-87
2021/09/21 08:56:27;;;;;;;3.97;3.58;;;;;;;;;;4682280;30;20207;-87
2021/09/21 08:58:59;;;;;;;2.70;2.50;;;;;;;;;;4682229;30;20629;-87
2021/09/21 09:01:40;;;;;;;2.65;2.45;;;;;;;;;;4694023;30;20242;-86
2021/09/21 09:04:37;;;;;;;3.25;3.05;;;;;;;;;;4691251;30;20220;-87
2021/09/21 09:07:06;;;;;;;4.65;2.83;;;;;;;;;;4698626;30;20230;-86
2021/09/21 09:10:06;;;;;;;3.50;2.72;;;;;;;;;;4699433;30;20215;-87
2021/09/21 09:12:36;;;;;;;3.80;2.70;;;;;;;;;;4699515;30;20199;-88
2021/09/21 09:15:19;;;;;;;2.60;2.40;;;;;;;;;;4699186;30;20195;-88
2021/09/21 09:18:34;;;;;;;2.30;2.10;;;;;;;;;;4699173;30;20829;-87
2021/09/21 09:21:23;;;;;;;3.33;2.92;;;;;;;;;;4687404;30;20217;-88
2021/09/21 09:24:00;;;;;;;2.65;2.38;;;;;;;;;;4698345;30;20203;-86
2021/09/21 09:26:37;;;;;;;2.30;2.10;;;;;;;;;;4685889;30;20200;-87
2021/09/21 09:29:21;;;;;;;2.30;2.10;;;;;;;;;;4685445;30;20199;-88
2021/09/21 09:31:50;;;;;;;2.38;2.28;;;;;;;;;;4684980;30;20315;-88
2021/09/21 09:34:33;;;;;;;2.67;2.47;;;;;;;;;;4699693;30;20217;-89
2021/09/21 09:37:10;;;;;;;2.10;1.90;;;;;;;;;;4697081;30;20238;-87
2021/09/21 09:39:38;;;;;;;2.08;1.98;;;;;;;;;;4695412;30;20237;-87
2021/09/21 09:42:08;;;;;;;2.10;2.00;;;;;;;;;;4702578;30;20210;-86
2021/09/21 09:44:37;;;;;;;1.88;1.77;;;;;;;;;;4699517;30;20203;-87
2021/09/21 09:47:08;;;;;;;1.63;1.52;;;;;;;;;;4696384;30;20235;-87
2021/09/21 09:49:39;;;;;;;1.48;1.38;;;;;;;;;;4702132;30;20210;-87
2021/09/21 09:52:19;;;;;;;1.60;1.50;;;;;;;;;;4701779;30;20230;-88
2021/09/21 09:54:58;;;;;;;2.13;1.98;;;;;;;;;;4701911;30;20198;-87
2021/09/21 09:57:27;;;;;;;1.60;1.50;;;;;;;;;;4702141;30;20245;-88
2021/09/21 09:59:59;;;;;;;1.70;1.60;;;;;;;;;;4702087;30;20203;-89
2021/09/21 10:02:28;;;;;;;1.85;1.70;;;;;;;;;;4702082;30;20319;-88
2021/09/21 10:05:11;;;;;;;1.95;1.85;;;;;;;;;;4701750;30;20202;-87
2021/09/21 10:07:47;;;;;;;1.58;1.48;;;;;;;;;;4701790;30;20261;-86
2021/09/21 10:10:15;;;;;;;2.10;1.75;;;;;;;;;;4701585;30;20221;-85
2021/09/21 10:12:44;;;;;;;1.35;1.25;;;;;;;;;;4701563;30;20597;-87
2021/09/21 10:18:56;;;;;;;1.08;1.08;;;;;;;;;;4700906;30;20803;-87
2021/09/21 10:21:35;;;;;;;1.38;1.27;;;;;;;;;;4701438;30;20210;-87
2021/09/21 10:24:04;;;;;;;1.00;1.00;;;;;;;;;;4700970;30;20588;-88
2021/09/21 10:26:33;;;;;;;0.80;0.80;;;;;;;;;;4701014;30;20292;-87
2021/09/21 10:29:01;;;;;;;0.95;0.95;;;;;;;;;;4701116;30;20309;-87
2021/09/21 10:31:29;;;;;;;1.08;1.05;;;;;;;;;;4701054;30;20242;-88
2021/09/21 10:33:58;;;;;;;1.58;1.48;;;;;;;;;;4701204;30;20218;-88
2021/09/21 10:36:32;;;;;;;1.33;1.33;;;;;;;;;;4700885;30;20214;-89
2021/09/21 10:39:06;;;;;;;1.33;1.23;;;;;;;;;;4701256;30;20238;-88
2021/09/21 10:41:34;;;;;;;1.52;1.40;;;;;;;;;;4700953;30;20234;-88
2021/09/21 10:44:05;;;;;;;0.93;0.93;;;;;;;;;;4701070;30;20660;-87
2021/09/21 10:46:45;;;;;;;1.20;1.10;;;;;;;;;;4700766;30;20581;-87
2021/09/21 10:49:24;;;;;;;1.20;0.93;;;;;;;;;;4700978;30;20198;-86
2021/09/21 10:51:52;;;;;;;1.70;1.60;;;;;;;;;;4700709;30;20567;-87
2021/09/21 10:54:31;;;;;;;1.42;1.33;;;;;;;;;;4700729;30;20211;-87
2021/09/21 10:57:14;;;;;;;1.38;1.33;;;;;;;;;;4700543;30;20210;-86
2021/09/21 10:59:54;;;;;;;1.20;1.20;;;;;;;;;;4700489;30;20207;-88
2021/09/21 11:02:23;;;;;;;1.30;0.90;;;;;;;;;;4700450;30;20210;-88
2021/09/21 11:04:53;;;;;;;1.45;1.17;;;;;;;;;;4700578;30;20210;-87
2021/09/21 11:07:21;;;;;;;1.40;1.30;;;;;;;;;;4700560;30;20239;-87
2021/09/21 11:09:54;;;;;;;1.50;1.40;;;;;;;;;;4700406;30;20211;-88
2021/09/21 11:12:24;;;;;;;1.27;1.17;;;;;;;;;;4700215;30;20234;-86
2021/09/21 11:14:53;;;;;;;1.50;1.40;;;;;;;;;;4700696;30;20209;-87
2021/09/21 11:17:24;;;;;;;1.67;1.10;;;;;;;;;;4700166;30;20230;-87
2021/09/21 11:19:56;;;;;;;1.63;1.52;;;;;;;;;;4700263;30;20277;-85
2021/09/21 11:22:28;;;;;;;1.65;1.55;;;;;;;;;;4700483;30;20569;-87
2021/09/21 11:25:01;;;;;;;1.52;1.42;;;;;;;;;;4700693;30;20215;-86
2021/09/21 11:27:29;;;;;;;2.13;1.80;;;;;;;;;;4700128;30;20230;-88
2021/09/21 11:30:04;;;;;;;1.70;1.60;;;;;;;;;;4699932;30;20284;-87
2021/09/21 11:32:31;;;;;;;1.70;1.60;;;;;;;;;;4699963;30;20321;-87
2021/09/21 11:35:02;;;;;;;1.70;1.60;;;;;;;;;;4699965;30;20213;-87
2021/09/21 11:37:30;;;;;;;1.80;1.70;;;;;;;;;;4699904;30;20245;-86
2021/09/21 11:39:58;;;;;;;1.75;1.40;;;;;;;;;;4699583;30;20248;-86
2021/09/21 11:42:30;;;;;;;1.63;1.40;;;;;;;;;;4699824;30;20695;-86
2021/09/21 11:45:01;;;;;;;2.17;2.03;;;;;;;;;;4700000;30;20512;-86
2021/09/21 11:47:40;;;;;;;2.25;1.65;;;;;;;;;;4699188;30;20231;-87
2021/09/21 11:50:16;;;;;;;1.95;1.77;;;;;;;;;;4699663;30;20214;-87
2021/09/21 11:52:49;;;;;;;1.20;1.15;;;;;;;;;;4699730;30;20241;-87
2021/09/21 11:55:19;;;;;;;1.33;1.25;;;;;;;;;;4699927;30;20210;-87
2021/09/21 11:57:49;;;;;;;1.45;1.35;;;;;;;;;;4699559;30;20769;-87
2021/09/21 12:00:24;;;;;;;1.55;1.45;;;;;;;;;;4700470;30;20206;-87
2021/09/21 12:02:57;;;;;;;1.55;1.45;;;;;;;;;;4699704;30;20581;-87
2021/09/21 12:05:27;;;;;;;2.05;1.95;;;;;;;;;;4699509;30;20260;-87
2021/09/21 12:07:54;;;;;;;1.40;1.30;;;;;;;;;;4699354;30;20222;-86
2021/09/21 12:10:26;;;;;;;1.52;1.42;;;;;;;;;;4699305;30;20221;-87
2021/09/21 12:13:02;;;;;;;1.20;1.20;;;;;;;;;;4699249;30;20245;-87
2021/09/21 12:15:31;;;;;;;2.00;1.90;;;;;;;;;;4699414;30;20490;-86
2021/09/21 12:17:59;;;;;;;1.77;1.65;;;;;;;;;;4699250;30;20235;-86
2021/09/21 12:20:30;;;;;;;2.75;1.40;;;;;;;;;;4699632;30;20214;-87
2021/09/21 12:22:57;;;;;;;2.22;1.52;;;;;;;;;;4699244;30;20214;-87
2021/09/21 12:25:31;;;;;;;1.17;1.17;;;;;;;;;;4699109;30;20207;-88
2021/09/21 12:28:00;;;;;;;1.85;1.75;;;;;;;;;;4699075;30;20238;-87
2021/09/21 12:30:31;;;;;;;1.70;1.60;;;;;;;;;;4699105;30;20759;-87
2021/09/21 12:33:01;;;;;;;1.60;1.27;;;;;;;;;;4698950;30;20234;-87
2021/09/21 12:35:34;;;;;;;1.23;1.17;;;;;;;;;;4699295;30;20218;-87
2021/09/21 12:38:04;;;;;;;1.52;1.42;;;;;;;;;;4698987;30;20749;-84
2021/09/21 12:40:32;;;;;;;1.23;1.17;;;;;;;;;;4697157;30;21026;-85
2021/09/21 12:43:04;;;;;;;1.50;1.40;;;;;;;;;;4696349;30;20220;-84
2021/09/21 12:45:33;;;;;;;1.63;1.52;;;;;;;;;;4696750;30;20225;-86
2021/09/21 12:48:04;;;;;;;1.65;1.55;;;;;;;;;;4696157;30;20734;-86
2021/09/21 12:50:33;;;;;;;1.48;1.38;;;;;;;;;;4695059;30;20221;-87
2021/09/21 12:53:01;;;;;;;1.27;1.17;;;;;;;;;;4695352;30;20249;-85
2021/09/21 12:55:34;;;;;;;1.30;1.20;;;;;;;;;;4696190;30;20241;-86
2021/09/21 12:58:04;;;;;;;1.15;1.15;;;;;;;;;;4696080;30;20344;-85
2021/09/21 13:00:37;;;;;;;1.00;1.00;;;;;;;;;;4697941;30;20575;-85
2021/09/21 13:03:06;;;;;;;1.20;1.10;;;;;;;;;;4699647;30;20211;-84
2021/09/21 13:05:37;;;;;;;1.13;1.13;;;;;;;;;;4699821;30;20596;-85
2021/09/21 13:08:04;;;;;;;1.67;1.52;;;;;;;;;;4699378;30;20262;-84
2021/09/21 13:10:32;;;;;;;1.20;1.10;;;;;;;;;;4699525;30;20203;-85
2021/09/21 13:13:02;;;;;;;1.55;1.45;;;;;;;;;;4699564;30;20293;-87
2021/09/21 13:15:32;;;;;;;1.20;1.10;;;;;;;;;;4699164;30;20230;-88
2021/09/21 13:18:00;;;;;;;1.02;1.02;;;;;;;;;;4698644;30;20242;-88
2021/09/21 13:20:30;;;;;;;1.33;1.25;;;;;;;;;;4699328;30;20526;-86
2021/09/21 13:23:00;;;;;;;1.10;1.10;;;;;;;;;;4699266;30;20601;-87
2021/09/21 13:25:29;;;;;;;0.90;0.90;;;;;;;;;;4699194;30;20215;-87
2021/09/21 13:27:58;;;;;;;1.40;1.20;;;;;;;;;;4698882;30;20238;-87
2021/09/21 13:30:25;;;;;;;1.23;1.17;;;;;;;;;;4699086;30;20311;-87
2021/09/21 13:32:53;;;;;;;2.05;1.85;;;;;;;;;;4699187;30;20242;-88
2021/09/21 13:35:21;;;;;;;1.58;1.48;;;;;;;;;;4698939;30;20210;-86
2021/09/21 13:37:50;;;;;;;1.45;1.35;;;;;;;;;;4699004;30;20245;-87
2021/09/21 13:40:21;;;;;;;1.30;1.20;;;;;;;;;;4693053;30;21043;-87
2021/09/21 13:42:50;;;;;;;1.52;1.42;;;;;;;;;;4681777;30;20211;-87
2021/09/21 13:45:18;;;;;;;1.45;1.35;;;;;;;;;;4681503;30;20207;-87
2021/09/21 13:47:46;;;;;;;1.08;1.08;;;;;;;;;;4681933;30;20243;-88
2021/09/21 13:50:15;;;;;;;1.67;1.58;;;;;;;;;;4686458;30;20206;-86
2021/09/21 13:52:44;;;;;;;1.25;1.15;;;;;;;;;;4685577;30;20683;-85
2021/09/21 13:55:12;;;;;;;1.10;1.00;;;;;;;;;;4684078;30;20219;-87
2021/09/21 13:57:41;;;;;;;0.90;0.90;;;;;;;;;;4684292;30;20601;-87
2021/09/21 14:00:13;;;;;;;1.60;1.50;;;;;;;;;;4696549;30;20217;-86
2021/09/21 14:02:43;;;;;;;1.38;1.27;;;;;;;;;;4701286;30;20664;-85
2021/09/21 14:05:11;;;;;;;1.17;1.17;;;;;;;;;;4701440;30;20237;-87
2021/09/21 14:07:39;;;;;;;1.38;1.27;;;;;;;;;;4701406;30;20231;-86
2021/09/21 14:10:09;;;;;;;1.50;1.40;;;;;;;;;;4703888;30;20582;-87
2021/09/21 14:12:38;;;;;;;1.42;1.33;;;;;;;;;;4684270;30;20195;-86
2021/09/21 14:15:10;;;;;;;1.40;1.30;;;;;;;;;;4689450;30;20717;-86
2021/09/21 14:17:41;;;;;;;1.83;1.70;;;;;;;;;;4689788;30;20750;-85
2021/09/21 14:20:10;;;;;;;1.80;1.70;;;;;;;;;;4693438;30;20292;-87
2021/09/21 14:22:38;;;;;;;1.73;1.60;;;;;;;;;;4691731;30;20211;-86
2021/09/21 14:25:08;;;;;;;1.90;1.80;;;;;;;;;;4700323;30;20221;-87
2021/09/21 14:27:36;;;;;;;1.50;1.40;;;;;;;;;;4701233;30;20234;-86
2021/09/21 14:30:09;;;;;;;1.25;1.15;;;;;;;;;;4699578;30;20218;-85
2021/09/21 14:32:37;;;;;;;1.50;1.40;;;;;;;;;;4693435;30;20226;-85
2021/09/21 14:35:06;;;;;;;1.30;1.20;;;;;;;;;;4695553;30;20231;-86
2021/09/21 14:37:33;;;;;;;1.67;1.40;;;;;;;;;;4690982;30;20243;-86
2021/09/21 14:40:01;;;;;;;1.70;1.60;;;;;;;;;;4686783;30;20230;-86
2021/09/21 14:42:28;;;;;;;1.33;1.30;;;;;;;;;;4700559;30;20222;-86
2021/09/21 14:44:56;;;;;;;1.30;1.20;;;;;;;;;;4695351;30;20229;-86
2021/09/21 14:47:24;;;;;;;1.35;1.25;;;;;;;;;;4683900;30;20644;-86
2021/09/21 14:49:52;;;;;;;1.20;1.20;;;;;;;;;;4698778;30;20215;-86
2021/09/21 14:52:19;;;;;;;1.58;1.48;;;;;;;;;;4683279;30;20660;-86
2021/09/21 14:54:48;;;;;;;1.42;1.35;;;;;;;;;;4682934;30;20738;-86
2021/09/21 14:57:15;;;;;;;1.67;1.58;;;;;;;;;;4683560;30;20231;-86
2021/09/21 14:59:43;;;;;;;1.92;1.40;;;;;;;;;;4684571;30;20204;-86
2021/09/21 15:02:10;;;;;;;2.13;1.58;;;;;;;;;;4700480;30;20218;-84
2021/09/21 15:04:39;;;;;;;1.33;1.23;;;;;;;;;;4700601;30;20199;-85
2021/09/21 15:07:06;;;;;;;1.00;1.00;;;;;;;;;;4700400;30;20253;-83
2021/09/21 15:09:34;;;;;;;1.08;1.08;;;;;;;;;;4700163;30;20214;-85